Time;durP1;ratioP1;P1;durP2;ratioP2;P2;SDS_P1;SDS_P2;PMS_P1;PMS_P2;Temp;Humidity;BMP_temperature;BMP_pressure;BME280_temperature;BME280_humidity;BME280_pressure;Samples;Min_cycle;Max_cycle;Signal;HPM_P1;HPM_P2
2021/10/08 00:01:30;;;;;;;29.37;9.48;;;;;;;3.23;58.69;102759.80;1705236;83;25797;-68
2021/10/08 00:03:57;;;;;;;29.48;9.60;;;;;;;3.19;58.75;102753.69;1700607;83;27523;-68
2021/10/08 00:06:24;;;;;;;21.80;9.20;;;;;;;3.11;58.93;102755.20;1700437;84;26104;-68
2021/10/08 00:08:51;;;;;;;28.32;9.63;;;;;;;3.04;59.56;102759.41;1697671;84;26496;-67
2021/10/08 00:11:18;;;;;;;19.57;8.20;;;;;;;2.98;59.24;102758.63;1692681;84;25824;-67
2021/10/08 00:13:45;;;;;;;24.50;9.30;;;;;;;2.98;59.24;102760.42;1696651;83;25943;-67
2021/10/08 00:16:14;;;;;;;26.45;8.53;;;;;;;2.98;59.26;102754.64;1698139;84;27486;-68
2021/10/08 00:18:41;;;;;;;22.02;9.00;;;;;;;3.02;59.33;102758.09;1707400;83;26475;-67
2021/10/08 00:21:09;;;;;;;23.50;8.15;;;;;;;3.03;59.36;102757.18;1706264;83;25931;-67
2021/10/08 00:23:37;;;;;;;23.50;8.33;;;;;;;3.07;59.84;102766.84;1702608;83;26621;-69
2021/10/08 00:26:05;;;;;;;20.57;9.05;;;;;;;3.08;59.75;102753.97;1698669;84;25729;-67
2021/10/08 00:28:33;;;;;;;29.20;8.25;;;;;;;3.12;59.96;102758.75;1696360;83;28239;-69
2021/10/08 00:31:02;;;;;;;31.60;9.53;;;;;;;3.13;59.60;102760.03;1688503;83;25758;-67
2021/10/08 00:33:29;;;;;;;31.40;9.40;;;;;;;3.16;60.00;102759.55;1705359;83;25860;-68
2021/10/08 00:35:56;;;;;;;59.40;22.95;;;;;;;3.14;59.76;102762.22;1709392;83;25784;-69
2021/10/08 00:38:23;;;;;;;73.70;31.73;;;;;;;3.09;59.77;102757.02;1635092;87;25721;-67
2021/10/08 00:40:50;;;;;;;39.45;17.90;;;;;;;3.04;59.72;102760.27;1644654;86;27427;-68
2021/10/08 00:43:21;;;;;;;38.38;17.50;;;;;;;3.05;59.59;102762.48;1628757;86;25828;-69
2021/10/08 00:45:49;;;;;;;33.95;11.25;;;;;;;3.06;59.38;102761.55;1642673;86;25892;-68
2021/10/08 00:48:17;;;;;;;39.33;10.18;;;;;;;3.05;59.28;102759.35;1647032;86;25780;-68
2021/10/08 00:50:48;;;;;;;22.10;9.75;;;;;;;3.01;59.04;102755.01;1646992;86;25780;-69
2021/10/08 00:53:16;;;;;;;28.10;9.90;;;;;;;2.96;58.94;102759.11;1651523;86;27490;-69
2021/10/08 00:55:47;;;;;;;27.90;10.18;;;;;;;2.85;58.86;102754.53;1621454;87;25597;-68
2021/10/08 00:58:18;;;;;;;28.30;10.30;;;;;;;2.77;58.98;102754.71;1646893;86;25899;-68
2021/10/08 01:00:48;;;;;;;26.05;9.63;;;;;;;2.72;59.00;102763.27;1650609;86;25754;-68
2021/10/08 01:03:18;;;;;;;23.35;8.78;;;;;;;2.70;59.19;102765.51;1647823;86;25492;-68
2021/10/08 01:05:46;;;;;;;20.60;9.10;;;;;;;2.68;59.23;102768.22;1650120;86;27526;-68
2021/10/08 01:08:13;;;;;;;31.97;10.98;;;;;;;2.66;59.79;102770.91;1646946;86;26195;-67
2021/10/08 01:10:42;;;;;;;27.48;8.55;;;;;;;2.66;59.66;102771.36;1649998;85;25832;-68
2021/10/08 01:13:11;;;;;;;19.70;8.53;;;;;;;2.61;59.46;102766.61;1644495;86;26462;-67
2021/10/08 01:15:39;;;;;;;30.35;9.40;;;;;;;2.58;59.66;102769.33;1651160;85;25892;-68
2021/10/08 01:18:07;;;;;;;23.55;8.95;;;;;;;2.56;59.83;102767.16;1634315;86;27452;-67
2021/10/08 01:20:36;;;;;;;29.07;8.10;;;;;;;2.57;59.83;102768.47;1637170;87;25831;-68
2021/10/08 01:23:07;;;;;;;21.00;8.75;;;;;;;2.55;60.34;102776.06;1635822;87;25474;-69
2021/10/08 01:25:36;;;;;;;23.52;8.18;;;;;;;2.54;60.30;102771.66;1634329;86;27059;-68
2021/10/08 01:28:06;;;;;;;19.50;9.23;;;;;;;2.56;60.27;102777.78;1632675;87;25896;-69
2021/10/08 01:30:36;;;;;;;26.33;7.97;;;;;;;2.55;60.42;102777.39;1636972;87;28118;-68
2021/10/08 01:33:06;;;;;;;28.55;9.63;;;;;;;2.54;60.73;102770.33;1653326;86;25731;-67
2021/10/08 01:35:35;;;;;;;23.92;9.28;;;;;;;2.54;60.45;102775.17;1649609;85;25823;-67
2021/10/08 01:38:03;;;;;;;20.35;9.48;;;;;;;2.52;60.62;102782.30;1649713;86;25816;-68
2021/10/08 01:40:31;;;;;;;19.95;8.33;;;;;;;2.50;60.67;102782.81;1655427;86;25499;-68
2021/10/08 01:43:00;;;;;;;25.23;9.65;;;;;;;2.50;60.66;102786.80;1657425;85;27547;-69
2021/10/08 01:45:27;;;;;;;22.37;10.20;;;;;;;2.51;60.53;102776.55;1657523;86;25784;-68
2021/10/08 01:47:55;;;;;;;23.87;9.63;;;;;;;2.52;60.24;102784.09;1651899;86;25742;-69
2021/10/08 01:50:23;;;;;;;21.95;9.33;;;;;;;2.44;60.15;102781.16;1653125;86;25802;-67
2021/10/08 01:52:50;;;;;;;27.95;10.78;;;;;;;2.38;60.14;102787.05;1652680;86;25834;-67
2021/10/08 01:55:20;;;;;;;32.33;9.88;;;;;;;2.31;60.04;102785.86;1643793;86;27571;-67
2021/10/08 01:57:49;;;;;;;28.65;10.30;;;;;;;2.25;60.02;102781.13;1648472;85;26021;-68
2021/10/08 02:00:16;;;;;;;31.10;10.43;;;;;;;2.23;60.17;102785.16;1657041;85;25704;-67
2021/10/08 02:02:44;;;;;;;27.00;9.90;;;;;;;2.15;60.73;102787.10;1652064;86;25897;-67
2021/10/08 02:05:15;;;;;;;29.67;10.20;;;;;;;2.07;60.28;102789.01;1650142;85;25796;-67
2021/10/08 02:07:46;;;;;;;32.20;9.10;;;;;;;1.98;60.55;102784.31;1646814;86;27562;-68
2021/10/08 02:10:15;;;;;;;30.85;10.32;;;;;;;1.96;61.06;102789.23;1646631;84;25801;-67
2021/10/08 02:12:42;;;;;;;25.88;8.35;;;;;;;1.90;61.39;102785.38;1606116;87;26522;-69
2021/10/08 02:15:10;;;;;;;24.47;8.83;;;;;;;1.88;61.34;102788.94;1654326;86;25877;-68
2021/10/08 02:17:38;;;;;;;29.10;9.93;;;;;;;1.90;61.36;102792.02;1639861;86;25794;-68
2021/10/08 02:20:07;;;;;;;25.12;9.08;;;;;;;1.92;62.26;102783.11;1687823;83;28189;-68
2021/10/08 02:22:35;;;;;;;30.55;10.05;;;;;;;1.97;61.73;102788.33;1683485;84;25854;-67
2021/10/08 02:25:04;;;;;;;25.70;9.03;;;;;;;1.99;61.71;102794.03;1663025;85;25795;-67
2021/10/08 02:27:32;;;;;;;24.55;10.93;;;;;;;2.02;61.79;102799.72;1655034;84;25876;-66
2021/10/08 02:30:00;;;;;;;28.67;10.65;;;;;;;2.04;61.69;102803.23;1652298;86;25720;-67
2021/10/08 02:32:27;;;;;;;36.73;10.55;;;;;;;2.01;61.83;102800.19;1651915;86;28284;-68
2021/10/08 02:34:54;;;;;;;25.85;9.70;;;;;;;2.00;61.42;102805.07;1648956;86;25902;-68
2021/10/08 02:37:21;;;;;;;31.77;10.38;;;;;;;2.01;61.19;102804.64;1652203;85;25560;-66
2021/10/08 02:39:49;;;;;;;29.40;10.88;;;;;;;2.00;61.16;102802.89;1652816;85;25807;-67
2021/10/08 02:42:18;;;;;;;32.23;11.12;;;;;;;1.97;61.03;102815.73;1652494;85;25792;-67
2021/10/08 02:44:45;;;;;;;31.73;10.75;;;;;;;1.93;60.80;102811.88;1652903;85;27452;-66
2021/10/08 02:47:12;;;;;;;23.12;9.75;;;;;;;1.86;60.71;102820.41;1652366;86;26409;-66
2021/10/08 02:49:40;;;;;;;32.58;11.43;;;;;;;1.81;61.30;102811.64;1640221;86;25859;-67
2021/10/08 02:52:08;;;;;;;26.10;12.15;;;;;;;1.75;61.16;102812.63;1713557;83;25830;-66
2021/10/08 02:54:35;;;;;;;31.65;12.07;;;;;;;1.66;61.29;102816.34;1718082;83;25891;-67
2021/10/08 02:57:04;;;;;;;24.52;12.50;;;;;;;1.63;61.31;102831.44;1720619;83;28146;-68
2021/10/08 02:59:31;;;;;;;29.45;13.08;;;;;;;1.62;61.30;102821.73;1718791;83;26074;-68
2021/10/08 03:02:02;;;;;;;39.05;12.65;;;;;;;1.61;61.18;102828.83;1718209;81;25884;-68
2021/10/08 03:04:28;;;;;;;38.20;12.45;;;;;;;1.60;61.18;102836.36;1719006;83;26162;-68
2021/10/08 03:06:57;;;;;;;32.58;11.65;;;;;;;1.54;61.88;102833.36;1719371;83;25806;-68
2021/10/08 03:09:24;;;;;;;27.27;11.43;;;;;;;1.51;61.71;102840.03;1720188;83;28417;-68
2021/10/08 03:11:51;;;;;;;33.95;14.38;;;;;;;1.52;61.76;102839.59;1719882;82;25741;-67
2021/10/08 03:14:19;;;;;;;35.80;13.18;;;;;;;1.55;61.72;102840.42;1717349;83;25702;-67
2021/10/08 03:16:47;;;;;;;37.90;13.03;;;;;;;1.57;62.06;102840.37;1720302;83;26193;-67
2021/10/08 03:19:13;;;;;;;27.67;12.10;;;;;;;1.61;62.10;102836.78;1719139;83;25900;-68
2021/10/08 03:21:41;;;;;;;28.92;12.23;;;;;;;1.66;61.96;102840.69;1693265;82;28724;-68
2021/10/08 03:24:09;;;;;;;40.23;11.33;;;;;;;1.73;62.01;102842.31;1719896;83;25486;-69
2021/10/08 03:26:37;;;;;;;28.80;10.65;;;;;;;1.75;61.95;102841.81;1718708;83;25789;-67
2021/10/08 03:29:05;;;;;;;33.40;11.60;;;;;;;1.78;61.81;102840.91;1708923;83;25816;-67
2021/10/08 03:31:35;;;;;;;30.40;12.50;;;;;;;1.70;61.89;102834.40;1717045;81;25973;-68
2021/10/08 03:34:02;;;;;;;32.95;11.97;;;;;;;1.68;61.69;102845.48;1714192;83;27568;-68
2021/10/08 03:39:08;;;;;;;39.20;12.63;;;;;;;1.65;61.55;102841.12;1715318;83;25813;-68
2021/10/08 03:41:41;;;;;;;30.92;12.40;;;;;;;1.61;61.34;102839.44;1720015;81;25680;-67
2021/10/08 03:44:07;;;;;;;35.50;12.13;;;;;;;1.58;61.28;102839.91;1714430;83;25832;-68
2021/10/08 03:46:51;;;;;;;37.67;13.08;;;;;;;1.55;61.23;102844.40;1719602;82;27423;-68
2021/10/08 03:49:20;;;;;;;33.88;12.07;;;;;;;1.53;61.31;102844.86;1712525;82;25744;-67
2021/10/08 03:51:49;;;;;;;45.03;13.35;;;;;;;1.51;61.28;102853.30;1714160;83;25838;-66
2021/10/08 03:54:19;;;;;;;34.88;12.93;;;;;;;1.49;61.32;102848.45;1713758;83;26502;-66
2021/10/08 03:56:47;;;;;;;34.80;12.88;;;;;;;1.47;61.30;102858.24;1707719;83;25789;-65
2021/10/08 03:59:15;;;;;;;39.50;14.75;;;;;;;1.46;61.26;102859.57;1684861;82;27591;-66
2021/10/08 04:01:43;;;;;;;38.50;12.85;;;;;;;1.44;61.36;102863.59;1710012;83;25743;-65
2021/10/08 04:04:10;;;;;;;41.63;12.40;;;;;;;1.42;61.69;102859.22;1711615;83;25886;-67
2021/10/08 04:06:37;;;;;;;34.27;12.70;;;;;;;1.44;61.92;102859.61;1711186;83;26357;-68
2021/10/08 04:09:09;;;;;;;29.50;11.55;;;;;;;1.47;61.83;102850.72;1712283;82;26263;-67
2021/10/08 04:11:38;;;;;;;35.50;13.18;;;;;;;1.47;61.88;102847.63;1713552;82;27453;-67
2021/10/08 04:14:05;;;;;;;36.53;12.18;;;;;;;1.50;62.13;102848.03;1705429;82;25919;-66
2021/10/08 04:16:36;;;;;;;31.95;12.75;;;;;;;1.54;62.50;102845.30;1708595;83;26566;-66
2021/10/08 04:19:07;;;;;;;37.70;13.43;;;;;;;1.59;62.45;102843.89;1711782;83;25786;-67
2021/10/08 04:21:35;;;;;;;57.93;13.70;;;;;;;1.65;62.45;102845.56;1714110;83;25749;-67
2021/10/08 04:24:02;;;;;;;30.92;12.75;;;;;;;1.70;62.54;102847.67;1707961;83;27481;-67
2021/10/08 04:26:30;;;;;;;41.63;14.45;;;;;;;1.73;62.27;102848.95;1709980;83;25894;-65
2021/10/08 04:28:59;;;;;;;43.60;15.23;;;;;;;1.76;62.07;102848.88;1706058;83;25741;-67
2021/10/08 04:31:26;;;;;;;40.35;14.10;;;;;;;1.80;61.97;102849.69;1706068;82;25778;-67
2021/10/08 04:33:53;;;;;;;40.98;14.65;;;;;;;1.81;61.65;102858.98;1707697;83;25799;-68
2021/10/08 04:36:20;;;;;;;45.60;14.93;;;;;;;1.78;61.46;102856.36;1710998;82;27459;-68
2021/10/08 04:38:47;;;;;;;32.33;12.15;;;;;;;1.72;61.36;102856.48;1714313;82;25828;-66
2021/10/08 04:41:14;;;;;;;44.25;14.68;;;;;;;1.72;61.32;102856.48;1710748;83;25746;-65
2021/10/08 04:43:42;;;;;;;46.00;14.47;;;;;;;1.74;61.35;102861.75;1709820;83;25909;-66
2021/10/08 04:46:09;;;;;;;46.60;15.03;;;;;;;1.72;61.32;102867.09;1711535;83;25903;-67
2021/10/08 04:48:36;;;;;;;31.50;13.32;;;;;;;1.71;61.35;102862.69;1712976;82;27531;-67
2021/10/08 04:51:03;;;;;;;41.08;14.95;;;;;;;1.72;61.37;102865.77;1708636;83;25822;-66
2021/10/08 04:53:31;;;;;;;41.08;15.83;;;;;;;1.72;61.36;102862.66;1708366;83;25896;-66
2021/10/08 04:55:58;;;;;;;46.95;15.15;;;;;;;1.70;61.33;102864.45;1706576;83;26463;-67
2021/10/08 04:58:25;;;;;;;40.98;13.80;;;;;;;1.69;61.31;102866.70;1704498;83;25795;-66
2021/10/08 05:00:54;;;;;;;50.75;15.05;;;;;;;1.71;61.43;102871.98;1701710;83;27545;-67
2021/10/08 05:03:21;;;;;;;49.63;15.75;;;;;;;1.71;61.34;102874.16;1683756;85;25895;-68
2021/10/08 05:05:53;;;;;;;40.55;16.82;;;;;;;1.73;61.57;102874.16;1687716;82;25858;-68
2021/10/08 05:08:24;;;;;;;45.33;16.15;;;;;;;1.74;61.45;102878.56;1704318;82;25900;-67
2021/10/08 05:11:17;;;;;;;;;;;;;;;;;;;;;
2021/10/08 05:13:41;;;;;;;55.63;17.02;;;;;;;1.85;61.39;102886.33;1660688;85;26354;-68
2021/10/08 05:16:10;;;;;;;46.48;16.55;;;;;;;1.93;61.25;102890.19;1682990;84;26017;-68
2021/10/08 05:18:52;;;;;;;77.00;17.55;;;;;;;1.93;61.16;102887.06;1683592;85;25856;-70
2021/10/08 05:21:19;;;;;;;54.75;17.30;;;;;;;2.00;61.14;102886.51;1688889;83;25839;-68
2021/10/08 05:23:47;;;;;;;46.25;16.37;;;;;;;2.08;60.69;102891.66;1703961;82;25281;-67
2021/10/08 05:26:14;;;;;;;48.23;16.05;;;;;;;2.11;60.84;102901.77;1685284;82;27455;-69
2021/10/08 05:28:41;;;;;;;54.30;17.12;;;;;;;2.09;60.67;102906.69;1691609;82;25723;-67
2021/10/08 05:31:18;;;;;;;39.15;14.60;;;;;;;2.05;60.67;102906.34;1701987;83;25875;-70
2021/10/08 05:33:48;;;;;;;45.80;15.90;;;;;;;1.89;60.56;102911.90;1710106;82;25787;-68
2021/10/08 05:36:16;;;;;;;40.33;16.40;;;;;;;1.83;61.00;102910.25;1713372;83;25767;-68
2021/10/08 05:38:44;;;;;;;38.75;15.08;;;;;;;1.81;60.95;102924.43;1711472;83;28469;-71
2021/10/08 05:41:13;;;;;;;49.18;15.53;;;;;;;1.77;61.03;102920.95;1707670;83;25872;-68
2021/10/08 05:43:42;;;;;;;46.95;18.15;;;;;;;1.80;61.12;102917.37;1704881;83;25744;-67
2021/10/08 05:46:09;;;;;;;50.35;16.17;;;;;;;1.81;60.96;102916.47;1706816;82;25912;-69
2021/10/08 05:48:37;;;;;;;59.08;15.10;;;;;;;1.78;61.12;102920.05;1706230;82;25747;-69
2021/10/08 05:51:06;;;;;;;45.78;14.33;;;;;;;1.77;60.55;102926.27;1701786;84;27422;-67
2021/10/08 05:53:33;;;;;;;47.73;13.83;;;;;;;1.79;60.43;102924.47;1704860;82;25774;-68
2021/10/08 05:56:00;;;;;;;43.05;15.28;;;;;;;1.77;60.01;102926.73;1706133;83;25862;-68
2021/10/08 05:58:27;;;;;;;33.50;14.70;;;;;;;1.78;60.13;102933.33;1707150;82;26948;-68
2021/10/08 06:00:54;;;;;;;50.60;15.93;;;;;;;1.72;59.99;102926.80;1707610;82;25762;-65
2021/10/08 06:03:21;;;;;;;56.53;16.30;;;;;;;1.70;59.38;102929.92;1707011;82;28176;-68
2021/10/08 06:05:48;;;;;;;52.15;15.63;;;;;;;1.66;59.50;102930.44;1710778;81;25694;-67
2021/10/08 06:08:16;;;;;;;48.87;16.35;;;;;;;1.70;59.64;102934.77;1721791;81;25784;-67
2021/10/08 06:10:44;;;;;;;57.58;18.92;;;;;;;1.74;59.73;102934.73;1710217;81;25788;-68
2021/10/08 06:13:13;;;;;;;68.90;25.17;;;;;;;1.80;59.54;102941.25;1713004;81;25788;-68
2021/10/08 06:15:41;;;;;;;52.62;18.75;;;;;;;1.88;59.45;102936.25;1686767;83;27689;-67
2021/10/08 06:18:07;;;;;;;53.02;15.05;;;;;;;2.00;59.07;102943.12;1711918;83;25846;-69
2021/10/08 06:20:35;;;;;;;50.00;14.83;;;;;;;2.07;58.84;102933.71;1710474;83;26731;-67
2021/10/08 06:23:03;;;;;;;56.90;16.35;;;;;;;2.15;58.26;102930.49;1711914;83;25823;-67
2021/10/08 06:25:31;;;;;;;46.68;14.30;;;;;;;2.21;58.05;102937.01;1704815;83;25785;-69
2021/10/08 06:28:00;;;;;;;36.75;14.33;;;;;;;2.27;57.89;102931.57;1705488;83;27648;-65
2021/10/08 06:30:29;;;;;;;45.45;15.20;;;;;;;2.31;57.34;102931.06;1705732;83;26472;-67
2021/10/08 06:32:56;;;;;;;51.65;15.63;;;;;;;2.34;57.02;102929.22;1706500;82;25823;-66
2021/10/08 06:35:24;;;;;;;58.92;15.20;;;;;;;2.31;56.34;102921.77;1708023;82;26511;-68
2021/10/08 06:37:52;;;;;;;52.50;14.95;;;;;;;2.39;56.85;102922.95;1711899;82;25842;-66
2021/10/08 06:40:19;;;;;;;49.03;14.47;;;;;;;2.43;56.51;102929.94;1683471;83;29577;-70
2021/10/08 06:42:48;;;;;;;37.55;15.58;;;;;;;2.51;56.44;102928.00;1706957;82;25769;-68
2021/10/08 06:45:25;;;;;;;50.78;17.50;;;;;;;2.65;56.40;102922.41;1703845;81;25726;-67
2021/10/08 06:47:52;;;;;;;60.78;17.45;;;;;;;2.76;56.30;102923.06;1704921;83;25841;-69
2021/10/08 06:50:21;;;;;;;48.63;16.42;;;;;;;2.87;56.50;102922.83;1714419;82;25833;-65
2021/10/08 06:52:50;;;;;;;55.00;17.00;;;;;;;2.93;56.16;102926.70;1730433;81;27479;-67
2021/10/08 06:55:24;;;;;;;66.10;16.93;;;;;;;3.03;56.25;102925.17;1713357;83;25829;-66
2021/10/08 06:57:54;;;;;;;51.75;15.98;;;;;;;3.11;56.17;102932.06;1694868;83;25786;-67
2021/10/08 07:00:28;;;;;;;56.98;17.37;;;;;;;3.21;56.22;102928.75;1715618;82;25839;-68
2021/10/08 07:03:00;;;;;;;52.03;16.30;;;;;;;3.28;56.12;102927.70;1716592;83;25798;-67
2021/10/08 07:05:30;;;;;;;63.40;17.02;;;;;;;3.38;55.97;102925.68;1718119;82;28144;-68
2021/10/08 07:08:01;;;;;;;57.50;17.15;;;;;;;3.50;56.02;102928.50;1716892;82;26546;-67
2021/10/08 07:10:30;;;;;;;45.03;16.52;;;;;;;3.61;55.89;102929.59;1716827;82;25743;-68
2021/10/08 07:12:57;;;;;;;60.55;18.85;;;;;;;3.77;55.61;102932.72;1716496;82;27905;-67
2021/10/08 07:15:24;;;;;;;53.60;17.10;;;;;;;3.87;55.95;102935.58;1717292;83;25853;-67
2021/10/08 07:17:54;;;;;;;51.28;19.37;;;;;;;3.99;55.77;102927.72;1718082;82;28241;-68
2021/10/08 07:20:25;;;;;;;59.77;18.12;;;;;;;4.15;55.44;102932.19;1718079;82;25711;-67
2021/10/08 07:22:55;;;;;;;51.63;18.92;;;;;;;4.28;55.05;102923.41;1719511;81;25779;-69
2021/10/08 07:25:25;;;;;;;47.08;18.52;;;;;;;4.38;55.01;102927.56;1717536;82;26306;-67
2021/10/08 07:27:52;;;;;;;51.50;17.23;;;;;;;4.54;54.52;102931.13;1714797;82;25918;-66
2021/10/08 07:30:21;;;;;;;72.85;17.35;;;;;;;4.66;54.71;102920.12;1718170;82;27464;-69
2021/10/08 07:32:48;;;;;;;35.15;16.17;;;;;;;4.80;53.73;102920.16;1731986;81;26265;-68
2021/10/08 07:35:16;;;;;;;53.52;16.10;;;;;;;4.90;52.99;102924.77;1715656;83;25791;-69
2021/10/08 07:37:43;;;;;;;61.33;16.75;;;;;;;5.05;53.25;102922.97;1717595;82;25815;-67
2021/10/08 07:40:12;;;;;;;50.50;17.80;;;;;;;5.23;53.27;102924.64;1717376;82;26429;-69
2021/10/08 07:42:42;;;;;;;53.90;17.10;;;;;;;5.41;52.46;102917.86;1716874;82;27008;-68
2021/10/08 07:45:11;;;;;;;62.85;17.60;;;;;;;5.54;51.58;102923.20;1715112;83;25857;-69
2021/10/08 07:47:38;;;;;;;53.92;16.35;;;;;;;5.70;51.54;102917.34;1714913;83;25814;-68
2021/10/08 07:50:08;;;;;;;42.25;14.78;;;;;;;5.87;51.36;102922.98;1720483;82;26785;-69
2021/10/08 07:52:35;;;;;;;33.33;12.30;;;;;;;6.07;51.58;102911.66;1718512;83;26424;-67
2021/10/08 07:55:04;;;;;;;35.98;10.00;;;;;;;6.27;50.83;102911.42;1718723;83;28101;-68
2021/10/08 07:57:31;;;;;;;27.62;9.98;;;;;;;6.50;49.99;102915.89;1718080;81;25777;-68
2021/10/08 07:59:59;;;;;;;35.78;8.95;;;;;;;6.72;49.49;102907.94;1723210;81;25867;-68
2021/10/08 08:02:28;;;;;;;33.55;9.30;;;;;;;7.00;46.24;102904.19;1718347;83;25814;-69
2021/10/08 08:04:56;;;;;;;30.65;9.30;;;;;;;7.25;46.76;102908.59;1718371;83;25864;-66
2021/10/08 08:07:24;;;;;;;38.30;10.15;;;;;;;7.46;45.85;102904.61;1720145;81;27542;-67
2021/10/08 08:09:54;;;;;;;39.15;8.58;;;;;;;7.66;45.93;102901.13;1718104;82;25756;-70
2021/10/08 08:12:21;;;;;;;33.00;10.08;;;;;;;7.87;44.62;102895.77;1718415;82;25761;-67
2021/10/08 08:14:50;;;;;;;23.67;8.95;;;;;;;8.10;42.66;102888.95;1719743;82;43829;-68
2021/10/08 08:17:17;;;;;;;64.30;10.00;;;;;;;8.28;42.67;102898.45;1719348;83;25770;-68
2021/10/08 08:19:43;;;;;;;30.00;9.05;;;;;;;8.49;41.84;102895.30;1718115;81;26946;-66
2021/10/08 08:22:10;;;;;;;161.15;13.03;;;;;;;8.70;42.65;102896.11;1717241;83;25886;-68
2021/10/08 08:24:37;;;;;;;23.67;8.93;;;;;;;8.93;43.12;102892.80;1714319;83;25731;-68
2021/10/08 08:27:04;;;;;;;169.35;17.07;;;;;;;9.19;42.14;102894.70;1717671;83;25807;-69
2021/10/08 08:29:31;;;;;;;28.35;9.30;;;;;;;9.41;41.19;102889.16;1724295;83;25922;-70
2021/10/08 08:31:58;;;;;;;37.63;8.40;;;;;;;9.66;41.10;102890.12;1715221;83;27456;-69
2021/10/08 08:34:27;;;;;;;30.62;8.70;;;;;;;9.92;41.24;102885.70;1714161;83;25886;-70
2021/10/08 08:36:55;;;;;;;27.90;7.80;;;;;;;10.15;39.07;102884.01;1716423;83;25741;-69
2021/10/08 08:39:23;;;;;;;20.32;7.72;;;;;;;10.38;39.57;102885.10;1717912;83;25968;-69
2021/10/08 08:41:51;;;;;;;28.55;8.20;;;;;;;10.61;39.08;102873.09;1717618;81;26499;-68
2021/10/08 08:44:18;;;;;;;37.13;7.75;;;;;;;10.89;38.73;102876.44;1719495;83;27483;-69
2021/10/08 08:46:46;;;;;;;31.68;9.20;;;;;;;11.18;38.24;102867.18;1716180;82;25784;-67
2021/10/08 08:49:13;;;;;;;42.78;8.70;;;;;;;11.47;37.91;102866.45;1718202;83;26054;-68
2021/10/08 08:51:41;;;;;;;19.95;6.65;;;;;;;11.80;36.49;102859.50;1721183;82;25898;-67
2021/10/08 08:54:08;;;;;;;26.62;6.05;;;;;;;12.13;34.94;102863.84;1719180;83;25838;-68
2021/10/08 08:56:38;;;;;;;39.85;5.97;;;;;;;12.39;33.57;102861.34;1707732;83;27480;-67
2021/10/08 08:59:11;;;;;;;28.05;7.00;;;;;;;12.64;35.35;102860.63;1704502;82;25784;-68
2021/10/08 09:02:03;;;;;;;22.70;6.75;;;;;;;12.92;32.60;102850.73;1703901;83;25888;-68
2021/10/08 09:04:33;;;;;;;27.55;7.10;;;;;;;13.26;31.66;102839.06;1690263;83;25819;-70
2021/10/08 09:07:01;;;;;;;22.05;6.70;;;;;;;13.83;29.89;102833.47;1701950;83;25846;-68
2021/10/08 09:09:29;;;;;;;21.40;6.62;;;;;;;14.39;30.33;102831.25;1708716;83;27488;-66
2021/10/08 09:11:57;;;;;;;28.57;7.05;;;;;;;15.19;29.33;102834.52;1720440;83;25806;-68
2021/10/08 09:14:33;;;;;;;24.20;5.97;;;;;;;15.85;29.48;102821.80;1712942;81;25741;-66
2021/10/08 09:17:19;;;;;;;11.90;6.58;;;;;;;16.61;28.78;102820.33;1708730;81;25804;-69
2021/10/08 09:20:11;;;;;;;25.72;5.03;;;;;;;17.42;29.25;102814.03;1708964;83;25806;-67
2021/10/08 09:22:46;;;;;;;26.15;4.92;;;;;;;18.25;26.96;102814.11;1708206;81;28190;-68
2021/10/08 09:25:17;;;;;;;22.87;4.90;;;;;;;19.12;24.00;102807.64;1713912;81;25742;-69
2021/10/08 09:27:54;;;;;;;24.15;3.92;;;;;;;19.60;24.55;102811.86;1705560;81;25774;-68
2021/10/08 09:30:28;;;;;;;22.62;4.72;;;;;;;20.14;22.16;102795.76;1705123;82;26854;-69
2021/10/08 09:32:56;;;;;;;14.95;3.55;;;;;;;20.40;21.84;102793.69;1706251;83;25752;-72
2021/10/08 09:35:26;;;;;;;23.30;4.35;;;;;;;20.76;20.83;102791.93;1712354;83;27499;-69
2021/10/08 09:38:01;;;;;;;7.83;2.95;;;;;;;20.72;20.35;102788.26;1706953;83;25755;-66
2021/10/08 09:40:41;;;;;;;26.33;4.17;;;;;;;20.90;22.80;102787.80;1702709;83;25778;-69
2021/10/08 09:43:25;;;;;;;15.40;3.83;;;;;;;21.56;21.88;102785.59;1648490;85;25746;-68
2021/10/08 09:46:02;;;;;;;17.55;3.67;;;;;;;21.91;20.71;102780.73;1629456;85;25805;-70
2021/10/08 09:48:42;;;;;;;15.78;3.92;;;;;;;22.26;20.76;102771.98;1706352;83;27543;-70
2021/10/08 09:51:13;;;;;;;14.87;3.20;;;;;;;22.73;19.64;102769.23;1705356;82;26385;-69
2021/10/08 09:53:55;;;;;;;22.98;4.15;;;;;;;23.05;20.33;102762.92;1706541;83;25855;-70
2021/10/08 09:56:37;;;;;;;18.73;4.20;;;;;;;23.57;19.24;102762.22;1704056;83;26615;-71
2021/10/08 09:59:11;;;;;;;17.17;3.22;;;;;;;23.86;16.52;102736.89;1700516;83;25974;-69
2021/10/08 10:01:41;;;;;;;10.53;3.17;;;;;;;23.67;17.58;102763.39;1702808;82;28218;-70
2021/10/08 10:04:10;;;;;;;10.08;2.98;;;;;;;23.78;18.17;102756.69;1703743;83;25789;-68
2021/10/08 10:06:39;;;;;;;32.25;3.75;;;;;;;23.85;18.03;102747.54;1706248;84;26449;-70
2021/10/08 10:09:08;;;;;;;20.85;3.40;;;;;;;23.81;18.31;102758.56;1706455;84;26610;-69
2021/10/08 10:11:36;;;;;;;12.25;2.90;;;;;;;24.03;17.73;102761.09;1705176;83;25809;-69
2021/10/08 10:14:03;;;;;;;19.70;3.58;;;;;;;24.33;18.39;102750.81;1704484;83;27459;-69
2021/10/08 10:16:33;;;;;;;18.62;3.12;;;;;;;24.89;16.56;102741.55;1709840;83;25790;-68
2021/10/08 10:19:03;;;;;;;16.25;3.52;;;;;;;24.87;17.46;102750.00;1701928;82;25878;-70
2021/10/08 10:21:36;;;;;;;19.05;3.62;;;;;;;25.20;17.74;102739.20;1702038;84;25822;-68
2021/10/08 10:24:04;;;;;;;15.50;3.50;;;;;;;25.61;16.08;102731.41;1702300;83;25823;-69
2021/10/08 10:26:36;;;;;;;21.55;3.67;;;;;;;25.73;15.13;102736.45;1701556;82;27455;-70
2021/10/08 10:29:07;;;;;;;14.10;3.10;;;;;;;25.14;16.83;102738.92;1704270;83;25863;-70
2021/10/08 10:31:35;;;;;;;16.73;3.47;;;;;;;25.25;16.92;102738.14;1704466;83;25794;-69
2021/10/08 10:34:04;;;;;;;12.18;3.50;;;;;;;25.67;16.29;102722.91;1704267;82;25796;-69
2021/10/08 10:36:41;;;;;;;22.35;3.98;;;;;;;25.98;15.61;102718.23;1704809;83;26141;-69
2021/10/08 10:39:19;;;;;;;20.48;4.22;;;;;;;25.90;16.51;102715.08;1704657;84;27470;-70
2021/10/08 10:41:56;;;;;;;12.37;3.50;;;;;;;26.16;16.33;102722.00;1708818;83;25815;-70
2021/10/08 10:44:32;;;;;;;16.35;3.75;;;;;;;26.19;15.96;102707.30;1707644;82;26322;-70
2021/10/08 10:47:36;;;;;;;26.85;3.70;;;;;;;26.29;16.08;102712.49;1685420;83;26814;-72
2021/10/08 10:50:28;;;;;;;18.32;3.10;;;;;;;26.41;15.93;102712.83;1695112;83;25810;-71
2021/10/08 10:52:59;;;;;;;16.77;3.05;;;;;;;26.82;15.17;102705.33;1705421;84;27485;-71
2021/10/08 10:55:33;;;;;;;18.42;2.87;;;;;;;26.91;14.27;102689.46;1710034;82;25809;-72
2021/10/08 10:58:07;;;;;;;18.80;3.17;;;;;;;26.48;14.82;102697.22;1711274;83;25791;-69
2021/10/08 11:00:44;;;;;;;23.30;3.55;;;;;;;26.26;15.46;102694.97;1699587;82;25790;-69
2021/10/08 11:03:18;;;;;;;20.88;2.98;;;;;;;26.15;15.61;102695.47;1690460;83;26020;-71
2021/10/08 11:06:09;;;;;;;16.55;2.87;;;;;;;26.29;16.14;102689.04;1720979;82;28663;-70
2021/10/08 11:08:56;;;;;;;24.00;3.17;;;;;;;26.66;14.85;102684.88;1712532;83;25823;-71
2021/10/08 11:11:23;;;;;;;20.23;3.22;;;;;;;26.01;14.82;102683.39;1718706;82;26423;-69
2021/10/08 11:13:50;;;;;;;17.50;3.22;;;;;;;25.52;16.12;102688.45;1714915;82;26260;-71
2021/10/08 11:16:30;;;;;;;20.43;3.17;;;;;;;25.38;15.91;102678.27;1708209;82;25505;-71
2021/10/08 11:18:57;;;;;;;15.40;3.58;;;;;;;25.05;15.99;102679.98;1707567;83;27459;-71
2021/10/08 11:21:34;;;;;;;33.63;3.77;;;;;;;24.74;16.65;102673.55;1708237;83;25863;-68
2021/10/08 11:24:21;;;;;;;16.87;2.67;;;;;;;24.73;16.08;102674.59;1708781;83;25458;-69
2021/10/08 11:26:57;;;;;;;19.80;3.22;;;;;;;24.29;16.27;102677.97;1707854;82;25812;-72
2021/10/08 11:29:29;;;;;;;22.45;2.77;;;;;;;23.84;16.75;102668.91;1689873;83;25781;-71
2021/10/08 11:32:04;;;;;;;13.25;3.52;;;;;;;23.59;16.40;102668.14;1675151;84;27542;-71
2021/10/08 11:34:35;;;;;;;17.50;2.98;;;;;;;23.00;17.04;102665.13;1669977;84;25808;-69